Delray, Michigan
Current Conditions -  °F | °C
As of 5:00 PM on Tuesday 21 Oct 2014 (Local Time) from CYQG Reporting Station
Overcast Overcast  
Wind Chill: 37°   Ceiling: 2200
Heat Index: 45°   Visibility: 12mi
Dew Point: 39°   Wind: 17mph
Humidity: 81%   Direction: 350°N
Pressure: 30.09"   Gusts: 26mph
Location:  42.2774°N, 83.1542°W
Report Text: CYQG 212100Z 35015G23KT 12SM OVC022 07/04 A3009 RMK SC8 SLP193
Loading
Personal Weather Stations






























Interactive Weather Map
Tropical Storm Tracking
New forecast layout! Learn more

10-Day Weather Forecast

Advertisements
Track Severe Weather on mobile